sensor_id;sensor_type;location;lat;lon;timestamp;P1;durP1;ratioP1;P2;durP2;ratioP2
22754;SDS011;11544;42.020;23.094;2024-03-08T00:00:09;10.30;;;6.55;;
22754;SDS011;11544;42.020;23.094;2024-03-08T00:02:43;10.20;;;5.32;;
22754;SDS011;11544;42.020;23.094;2024-03-08T00:05:11;11.50;;;5.88;;
22754;SDS011;11544;42.020;23.094;2024-03-08T00:07:39;10.40;;;5.65;;
22754;SDS011;11544;42.020;23.094;2024-03-08T00:10:07;8.77;;;5.18;;
22754;SDS011;11544;42.020;23.094;2024-03-08T00:12:38;8.30;;;5.32;;
22754;SDS011;11544;42.020;23.094;2024-03-08T00:15:11;9.48;;;5.30;;
22754;SDS011;11544;42.020;23.094;2024-03-08T00:17:43;9.30;;;4.93;;
22754;SDS011;11544;42.020;23.094;2024-03-08T00:20:11;7.07;;;4.47;;
22754;SDS011;11544;42.020;23.094;2024-03-08T00:22:40;10.10;;;5.00;;
22754;SDS011;11544;42.020;23.094;2024-03-08T00:25:07;10.70;;;5.30;;
22754;SDS011;11544;42.020;23.094;2024-03-08T00:27:38;8.45;;;4.60;;
22754;SDS011;11544;42.020;23.094;2024-03-08T00:30:05;9.10;;;4.70;;
22754;SDS011;11544;42.020;23.094;2024-03-08T00:32:34;8.18;;;5.07;;
22754;SDS011;11544;42.020;23.094;2024-03-08T00:35:01;7.28;;;5.13;;
22754;SDS011;11544;42.020;23.094;2024-03-08T00:37:28;11.48;;;5.68;;
22754;SDS011;11544;42.020;23.094;2024-03-08T00:39:55;8.55;;;4.20;;
22754;SDS011;11544;42.020;23.094;2024-03-08T00:42:22;7.13;;;4.35;;
22754;SDS011;11544;42.020;23.094;2024-03-08T00:44:50;11.43;;;4.38;;
22754;SDS011;11544;42.020;23.094;2024-03-08T00:47:18;9.23;;;4.07;;
22754;SDS011;11544;42.020;23.094;2024-03-08T00:49:45;6.68;;;3.90;;
22754;SDS011;11544;42.020;23.094;2024-03-08T00:52:13;6.20;;;4.15;;
22754;SDS011;11544;42.020;23.094;2024-03-08T00:54:40;5.93;;;3.92;;
22754;SDS011;11544;42.020;23.094;2024-03-08T00:57:10;6.10;;;4.38;;
22754;SDS011;11544;42.020;23.094;2024-03-08T00:59:37;8.35;;;4.82;;
22754;SDS011;11544;42.020;23.094;2024-03-08T01:02:05;10.07;;;5.05;;
22754;SDS011;11544;42.020;23.094;2024-03-08T01:04:32;8.15;;;5.03;;
22754;SDS011;11544;42.020;23.094;2024-03-08T01:06:59;6.22;;;4.15;;
22754;SDS011;11544;42.020;23.094;2024-03-08T01:09:26;7.60;;;4.97;;
22754;SDS011;11544;42.020;23.094;2024-03-08T01:11:54;9.25;;;5.20;;
22754;SDS011;11544;42.020;23.094;2024-03-08T01:14:22;11.82;;;4.45;;
22754;SDS011;11544;42.020;23.094;2024-03-08T01:16:49;6.90;;;4.40;;
22754;SDS011;11544;42.020;23.094;2024-03-08T01:19:17;8.65;;;5.38;;
22754;SDS011;11544;42.020;23.094;2024-03-08T01:21:44;8.95;;;5.20;;
22754;SDS011;11544;42.020;23.094;2024-03-08T01:24:11;9.45;;;5.70;;
22754;SDS011;11544;42.020;23.094;2024-03-08T01:26:37;8.55;;;5.45;;
22754;SDS011;11544;42.020;23.094;2024-03-08T01:29:05;8.77;;;5.40;;
22754;SDS011;11544;42.020;23.094;2024-03-08T01:31:32;9.45;;;5.30;;
22754;SDS011;11544;42.020;23.094;2024-03-08T01:34:00;9.10;;;5.28;;
22754;SDS011;11544;42.020;23.094;2024-03-08T01:36:26;8.07;;;5.60;;
22754;SDS011;11544;42.020;23.094;2024-03-08T01:38:53;10.40;;;5.68;;
22754;SDS011;11544;42.020;23.094;2024-03-08T01:41:20;10.77;;;6.20;;
22754;SDS011;11544;42.020;23.094;2024-03-08T01:43:47;8.23;;;5.60;;
22754;SDS011;11544;42.020;23.094;2024-03-08T01:46:15;8.45;;;6.13;;
22754;SDS011;11544;42.020;23.094;2024-03-08T01:48:45;8.75;;;5.53;;
22754;SDS011;11544;42.020;23.094;2024-03-08T01:51:13;11.25;;;5.93;;
22754;SDS011;11544;42.020;23.094;2024-03-08T01:53:42;10.80;;;5.70;;
22754;SDS011;11544;42.020;23.094;2024-03-08T01:56:12;10.77;;;6.05;;
22754;SDS011;11544;42.020;23.094;2024-03-08T01:58:41;7.57;;;5.28;;
22754;SDS011;11544;42.020;23.094;2024-03-08T02:01:12;8.43;;;5.70;;
22754;SDS011;11544;42.020;23.094;2024-03-08T02:03:42;7.63;;;5.45;;
22754;SDS011;11544;42.020;23.094;2024-03-08T02:06:11;9.30;;;5.65;;
22754;SDS011;11544;42.020;23.094;2024-03-08T02:08:41;9.75;;;6.20;;
22754;SDS011;11544;42.020;23.094;2024-03-08T02:11:08;10.32;;;6.20;;
22754;SDS011;11544;42.020;23.094;2024-03-08T02:13:35;10.93;;;6.72;;
22754;SDS011;11544;42.020;23.094;2024-03-08T02:16:02;13.48;;;6.80;;
22754;SDS011;11544;42.020;23.094;2024-03-08T02:18:31;11.95;;;6.03;;
22754;SDS011;11544;42.020;23.094;2024-03-08T02:21:02;9.63;;;5.80;;
22754;SDS011;11544;42.020;23.094;2024-03-08T02:23:30;10.52;;;5.95;;
22754;SDS011;11544;42.020;23.094;2024-03-08T02:25:59;12.40;;;5.90;;
22754;SDS011;11544;42.020;23.094;2024-03-08T02:28:26;8.70;;;5.82;;
22754;SDS011;11544;42.020;23.094;2024-03-08T02:30:54;11.65;;;6.32;;
22754;SDS011;11544;42.020;23.094;2024-03-08T02:33:23;11.57;;;6.28;;
22754;SDS011;11544;42.020;23.094;2024-03-08T02:35:51;8.35;;;5.88;;
22754;SDS011;11544;42.020;23.094;2024-03-08T02:38:18;10.15;;;6.43;;
22754;SDS011;11544;42.020;23.094;2024-03-08T02:40:47;10.52;;;6.75;;
22754;SDS011;11544;42.020;23.094;2024-03-08T02:43:16;12.10;;;6.47;;
22754;SDS011;11544;42.020;23.094;2024-03-08T02:45:46;11.50;;;6.28;;
22754;SDS011;11544;42.020;23.094;2024-03-08T02:48:14;11.50;;;6.80;;
22754;SDS011;11544;42.020;23.094;2024-03-08T02:50:41;11.20;;;6.70;;
22754;SDS011;11544;42.020;23.094;2024-03-08T02:53:27;13.27;;;7.32;;
22754;SDS011;11544;42.020;23.094;2024-03-08T02:55:54;11.88;;;6.20;;
22754;SDS011;11544;42.020;23.094;2024-03-08T02:58:21;12.32;;;6.35;;
22754;SDS011;11544;42.020;23.094;2024-03-08T03:00:48;11.15;;;6.82;;
22754;SDS011;11544;42.020;23.094;2024-03-08T03:03:16;11.27;;;5.95;;
22754;SDS011;11544;42.020;23.094;2024-03-08T03:05:43;13.25;;;6.47;;
22754;SDS011;11544;42.020;23.094;2024-03-08T03:08:14;11.38;;;7.00;;
22754;SDS011;11544;42.020;23.094;2024-03-08T03:10:43;12.07;;;6.43;;
22754;SDS011;11544;42.020;23.094;2024-03-08T03:13:10;9.90;;;6.45;;
22754;SDS011;11544;42.020;23.094;2024-03-08T03:15:38;9.80;;;6.53;;
22754;SDS011;11544;42.020;23.094;2024-03-08T03:18:08;12.63;;;6.75;;
22754;SDS011;11544;42.020;23.094;2024-03-08T03:20:35;11.60;;;6.20;;
22754;SDS011;11544;42.020;23.094;2024-03-08T03:23:09;12.35;;;6.22;;
22754;SDS011;11544;42.020;23.094;2024-03-08T03:25:41;10.57;;;6.60;;
22754;SDS011;11544;42.020;23.094;2024-03-08T03:28:08;12.80;;;6.97;;
22754;SDS011;11544;42.020;23.094;2024-03-08T03:30:37;11.52;;;6.63;;
22754;SDS011;11544;42.020;23.094;2024-03-08T03:33:06;12.45;;;6.65;;
22754;SDS011;11544;42.020;23.094;2024-03-08T03:35:36;13.25;;;6.40;;
22754;SDS011;11544;42.020;23.094;2024-03-08T03:38:04;11.73;;;6.97;;
22754;SDS011;11544;42.020;23.094;2024-03-08T03:40:37;12.27;;;7.25;;
22754;SDS011;11544;42.020;23.094;2024-03-08T03:43:05;12.07;;;7.32;;
22754;SDS011;11544;42.020;23.094;2024-03-08T03:45:32;12.77;;;6.47;;
22754;SDS011;11544;42.020;23.094;2024-03-08T03:48:04;15.45;;;6.82;;
22754;SDS011;11544;42.020;23.094;2024-03-08T03:50:34;14.60;;;7.18;;
22754;SDS011;11544;42.020;23.094;2024-03-08T03:53:02;12.95;;;7.28;;
22754;SDS011;11544;42.020;23.094;2024-03-08T03:55:30;12.32;;;7.25;;
22754;SDS011;11544;42.020;23.094;2024-03-08T03:57:56;13.68;;;6.80;;
22754;SDS011;11544;42.020;23.094;2024-03-08T04:00:25;11.77;;;7.15;;
22754;SDS011;11544;42.020;23.094;2024-03-08T04:02:53;10.88;;;6.85;;
22754;SDS011;11544;42.020;23.094;2024-03-08T04:05:21;12.57;;;7.38;;
22754;SDS011;11544;42.020;23.094;2024-03-08T04:07:48;11.30;;;6.63;;
22754;SDS011;11544;42.020;23.094;2024-03-08T04:10:15;10.10;;;5.78;;
22754;SDS011;11544;42.020;23.094;2024-03-08T04:12:42;10.50;;;6.00;;
22754;SDS011;11544;42.020;23.094;2024-03-08T04:15:09;9.13;;;5.68;;
22754;SDS011;11544;42.020;23.094;2024-03-08T04:17:37;9.55;;;6.72;;
22754;SDS011;11544;42.020;23.094;2024-03-08T04:20:05;8.65;;;6.20;;
22754;SDS011;11544;42.020;23.094;2024-03-08T04:22:41;8.00;;;5.75;;
22754;SDS011;11544;42.020;23.094;2024-03-08T04:25:09;10.10;;;6.00;;
22754;SDS011;11544;42.020;23.094;2024-03-08T04:27:36;9.55;;;6.07;;
22754;SDS011;11544;42.020;23.094;2024-03-08T04:30:03;12.07;;;6.22;;
22754;SDS011;11544;42.020;23.094;2024-03-08T04:32:30;13.30;;;6.50;;
22754;SDS011;11544;42.020;23.094;2024-03-08T04:34:59;11.43;;;6.72;;
22754;SDS011;11544;42.020;23.094;2024-03-08T04:37:30;12.07;;;6.47;;
22754;SDS011;11544;42.020;23.094;2024-03-08T04:39:58;10.13;;;6.53;;
22754;SDS011;11544;42.020;23.094;2024-03-08T04:42:26;10.80;;;6.68;;
22754;SDS011;11544;42.020;23.094;2024-03-08T04:44:56;14.52;;;7.55;;
22754;SDS011;11544;42.020;23.094;2024-03-08T04:47:24;9.70;;;6.35;;
22754;SDS011;11544;42.020;23.094;2024-03-08T04:49:51;13.65;;;5.90;;
22754;SDS011;11544;42.020;23.094;2024-03-08T04:52:19;10.02;;;6.20;;
22754;SDS011;11544;42.020;23.094;2024-03-08T04:54:46;11.02;;;7.15;;
22754;SDS011;11544;42.020;23.094;2024-03-08T04:57:13;9.73;;;6.65;;
22754;SDS011;11544;42.020;23.094;2024-03-08T04:59:40;10.40;;;6.93;;
22754;SDS011;11544;42.020;23.094;2024-03-08T05:02:07;12.07;;;7.03;;
22754;SDS011;11544;42.020;23.094;2024-03-08T05:04:34;9.32;;;6.35;;
22754;SDS011;11544;42.020;23.094;2024-03-08T05:07:01;11.57;;;8.10;;
22754;SDS011;11544;42.020;23.094;2024-03-08T05:09:28;13.25;;;7.40;;
22754;SDS011;11544;42.020;23.094;2024-03-08T05:11:58;11.25;;;7.43;;
22754;SDS011;11544;42.020;23.094;2024-03-08T05:14:25;15.02;;;8.35;;
22754;SDS011;11544;42.020;23.094;2024-03-08T05:16:52;16.75;;;7.82;;
22754;SDS011;11544;42.020;23.094;2024-03-08T05:19:19;16.05;;;8.98;;
22754;SDS011;11544;42.020;23.094;2024-03-08T05:21:47;14.65;;;9.05;;
22754;SDS011;11544;42.020;23.094;2024-03-08T05:24:16;13.18;;;8.13;;
22754;SDS011;11544;42.020;23.094;2024-03-08T05:26:45;14.93;;;8.75;;
22754;SDS011;11544;42.020;23.094;2024-03-08T05:29:13;15.55;;;8.48;;
22754;SDS011;11544;42.020;23.094;2024-03-08T05:31:48;14.48;;;8.38;;
22754;SDS011;11544;42.020;23.094;2024-03-08T05:34:19;16.85;;;8.95;;
22754;SDS011;11544;42.020;23.094;2024-03-08T05:36:48;14.57;;;9.02;;
22754;SDS011;11544;42.020;23.094;2024-03-08T05:39:18;15.77;;;9.43;;
22754;SDS011;11544;42.020;23.094;2024-03-08T05:41:50;18.63;;;10.00;;
22754;SDS011;11544;42.020;23.094;2024-03-08T05:44:17;16.58;;;10.60;;
22754;SDS011;11544;42.020;23.094;2024-03-08T05:46:44;16.23;;;9.60;;
22754;SDS011;11544;42.020;23.094;2024-03-08T05:49:13;14.45;;;9.63;;
22754;SDS011;11544;42.020;23.094;2024-03-08T05:51:40;15.85;;;9.10;;
22754;SDS011;11544;42.020;23.094;2024-03-08T05:54:10;23.15;;;10.50;;
22754;SDS011;11544;42.020;23.094;2024-03-08T05:56:41;21.52;;;10.46;;
22754;SDS011;11544;42.020;23.094;2024-03-08T05:59:10;20.48;;;9.98;;
22754;SDS011;11544;42.020;23.094;2024-03-08T06:01:37;20.00;;;9.93;;
22754;SDS011;11544;42.020;23.094;2024-03-08T06:04:08;17.05;;;9.57;;
22754;SDS011;11544;42.020;23.094;2024-03-08T06:06:35;17.00;;;10.60;;
22754;SDS011;11544;42.020;23.094;2024-03-08T06:09:04;22.63;;;10.43;;
22754;SDS011;11544;42.020;23.094;2024-03-08T06:11:54;17.30;;;10.35;;
22754;SDS011;11544;42.020;23.094;2024-03-08T06:14:21;18.35;;;9.85;;
22754;SDS011;11544;42.020;23.094;2024-03-08T06:16:49;15.48;;;9.23;;
22754;SDS011;11544;42.020;23.094;2024-03-08T06:19:17;16.30;;;8.98;;
22754;SDS011;11544;42.020;23.094;2024-03-08T06:21:44;17.67;;;9.57;;
22754;SDS011;11544;42.020;23.094;2024-03-08T06:24:11;19.85;;;10.35;;
22754;SDS011;11544;42.020;23.094;2024-03-08T06:26:38;18.92;;;9.77;;
22754;SDS011;11544;42.020;23.094;2024-03-08T06:29:05;12.45;;;7.80;;
22754;SDS011;11544;42.020;23.094;2024-03-08T06:31:35;10.85;;;6.43;;
22754;SDS011;11544;42.020;23.094;2024-03-08T06:34:06;15.45;;;6.82;;
22754;SDS011;11544;42.020;23.094;2024-03-08T06:36:35;11.48;;;7.10;;
22754;SDS011;11544;42.020;23.094;2024-03-08T06:39:04;9.63;;;5.82;;
22754;SDS011;11544;42.020;23.094;2024-03-08T06:41:36;12.43;;;6.30;;
22754;SDS011;11544;42.020;23.094;2024-03-08T06:44:04;10.15;;;6.03;;
22754;SDS011;11544;42.020;23.094;2024-03-08T06:46:31;10.32;;;5.15;;
22754;SDS011;11544;42.020;23.094;2024-03-08T06:48:58;9.18;;;5.35;;
22754;SDS011;11544;42.020;23.094;2024-03-08T06:51:25;11.00;;;6.18;;
22754;SDS011;11544;42.020;23.094;2024-03-08T06:53:52;8.95;;;5.93;;
22754;SDS011;11544;42.020;23.094;2024-03-08T06:56:19;10.85;;;6.00;;
22754;SDS011;11544;42.020;23.094;2024-03-08T06:58:46;15.55;;;6.55;;
22754;SDS011;11544;42.020;23.094;2024-03-08T07:01:13;15.35;;;7.53;;
22754;SDS011;11544;42.020;23.094;2024-03-08T07:03:41;14.93;;;7.95;;
22754;SDS011;11544;42.020;23.094;2024-03-08T07:06:11;13.98;;;7.32;;
22754;SDS011;11544;42.020;23.094;2024-03-08T07:08:38;15.63;;;7.20;;
22754;SDS011;11544;42.020;23.094;2024-03-08T07:11:05;22.08;;;7.80;;
22754;SDS011;11544;42.020;23.094;2024-03-08T07:13:32;18.92;;;8.73;;
22754;SDS011;11544;42.020;23.094;2024-03-08T07:15:59;17.05;;;8.45;;
22754;SDS011;11544;42.020;23.094;2024-03-08T07:18:27;15.70;;;8.68;;
22754;SDS011;11544;42.020;23.094;2024-03-08T07:20:57;13.60;;;8.55;;
22754;SDS011;11544;42.020;23.094;2024-03-08T07:23:24;13.15;;;8.07;;
22754;SDS011;11544;42.020;23.094;2024-03-08T07:26:10;10.63;;;5.95;;
22754;SDS011;11544;42.020;23.094;2024-03-08T07:28:36;11.55;;;7.38;;
22754;SDS011;11544;42.020;23.094;2024-03-08T07:31:03;15.32;;;7.97;;
22754;SDS011;11544;42.020;23.094;2024-03-08T07:33:46;15.45;;;7.97;;
22754;SDS011;11544;42.020;23.094;2024-03-08T07:36:13;13.25;;;7.32;;
22754;SDS011;11544;42.020;23.094;2024-03-08T07:38:41;12.88;;;7.22;;
22754;SDS011;11544;42.020;23.094;2024-03-08T07:41:08;11.93;;;7.15;;
22754;SDS011;11544;42.020;23.094;2024-03-08T07:43:36;11.43;;;6.60;;
22754;SDS011;11544;42.020;23.094;2024-03-08T07:46:03;11.82;;;6.57;;
22754;SDS011;11544;42.020;23.094;2024-03-08T07:48:30;12.55;;;6.55;;
22754;SDS011;11544;42.020;23.094;2024-03-08T07:50:57;10.00;;;6.43;;
22754;SDS011;11544;42.020;23.094;2024-03-08T07:53:24;13.02;;;6.93;;
22754;SDS011;11544;42.020;23.094;2024-03-08T07:55:51;10.30;;;6.35;;
22754;SDS011;11544;42.020;23.094;2024-03-08T07:58:19;14.90;;;7.38;;
22754;SDS011;11544;42.020;23.094;2024-03-08T08:00:46;12.85;;;7.47;;
22754;SDS011;11544;42.020;23.094;2024-03-08T08:03:12;16.02;;;7.63;;
22754;SDS011;11544;42.020;23.094;2024-03-08T08:05:40;12.07;;;6.40;;
22754;SDS011;11544;42.020;23.094;2024-03-08T08:08:09;11.20;;;7.57;;
22754;SDS011;11544;42.020;23.094;2024-03-08T08:10:38;10.15;;;6.68;;
22754;SDS011;11544;42.020;23.094;2024-03-08T08:13:05;8.32;;;5.47;;
22754;SDS011;11544;42.020;23.094;2024-03-08T08:15:32;10.55;;;6.28;;
22754;SDS011;11544;42.020;23.094;2024-03-08T08:18:01;13.20;;;7.15;;
22754;SDS011;11544;42.020;23.094;2024-03-08T08:20:29;12.35;;;6.65;;
22754;SDS011;11544;42.020;23.094;2024-03-08T08:22:56;10.60;;;6.38;;
22754;SDS011;11544;42.020;23.094;2024-03-08T08:25:23;9.50;;;5.63;;
22754;SDS011;11544;42.020;23.094;2024-03-08T08:27:51;10.35;;;5.05;;
22754;SDS011;11544;42.020;23.094;2024-03-08T08:30:20;8.68;;;5.20;;
22754;SDS011;11544;42.020;23.094;2024-03-08T08:32:47;11.13;;;5.75;;
22754;SDS011;11544;42.020;23.094;2024-03-08T08:35:16;8.88;;;4.90;;
22754;SDS011;11544;42.020;23.094;2024-03-08T08:37:44;10.43;;;5.30;;
22754;SDS011;11544;42.020;23.094;2024-03-08T08:40:11;6.30;;;4.60;;
22754;SDS011;11544;42.020;23.094;2024-03-08T08:42:42;8.35;;;4.25;;
22754;SDS011;11544;42.020;23.094;2024-03-08T08:45:09;8.07;;;4.47;;
22754;SDS011;11544;42.020;23.094;2024-03-08T08:47:43;7.47;;;3.45;;
22754;SDS011;11544;42.020;23.094;2024-03-08T08:50:12;6.07;;;3.50;;
22754;SDS011;11544;42.020;23.094;2024-03-08T08:52:40;4.40;;;3.10;;
22754;SDS011;11544;42.020;23.094;2024-03-08T08:55:07;9.63;;;3.33;;
22754;SDS011;11544;42.020;23.094;2024-03-08T08:57:34;6.22;;;3.30;;
22754;SDS011;11544;42.020;23.094;2024-03-08T09:00:02;6.70;;;3.30;;
22754;SDS011;11544;42.020;23.094;2024-03-08T09:02:42;4.63;;;2.38;;
22754;SDS011;11544;42.020;23.094;2024-03-08T09:05:09;4.55;;;2.35;;
22754;SDS011;11544;42.020;23.094;2024-03-08T09:07:38;6.80;;;3.72;;
22754;SDS011;11544;42.020;23.094;2024-03-08T09:10:05;5.30;;;2.88;;
22754;SDS011;11544;42.020;23.094;2024-03-08T09:12:43;4.10;;;2.55;;
22754;SDS011;11544;42.020;23.094;2024-03-08T09:15:10;7.90;;;3.33;;
22754;SDS011;11544;42.020;23.094;2024-03-08T09:17:38;3.45;;;2.53;;
22754;SDS011;11544;42.020;23.094;2024-03-08T09:20:07;8.15;;;3.38;;
22754;SDS011;11544;42.020;23.094;2024-03-08T09:22:44;6.35;;;3.15;;
22754;SDS011;11544;42.020;23.094;2024-03-08T09:25:12;9.38;;;3.88;;
22754;SDS011;11544;42.020;23.094;2024-03-08T09:27:39;3.30;;;2.42;;
22754;SDS011;11544;42.020;23.094;2024-03-08T09:30:07;6.00;;;3.60;;
22754;SDS011;11544;42.020;23.094;2024-03-08T09:32:34;6.00;;;3.60;;
22754;SDS011;11544;42.020;23.094;2024-03-08T09:35:03;5.07;;;3.08;;
22754;SDS011;11544;42.020;23.094;2024-03-08T09:37:34;4.93;;;2.85;;
22754;SDS011;11544;42.020;23.094;2024-03-08T09:40:01;6.88;;;3.50;;
22754;SDS011;11544;42.020;23.094;2024-03-08T09:42:31;5.47;;;2.55;;
22754;SDS011;11544;42.020;23.094;2024-03-08T09:44:59;3.20;;;2.08;;
22754;SDS011;11544;42.020;23.094;2024-03-08T09:47:26;6.00;;;2.55;;
22754;SDS011;11544;42.020;23.094;2024-03-08T09:50:00;3.92;;;2.25;;
22754;SDS011;11544;42.020;23.094;2024-03-08T09:52:27;6.53;;;2.88;;
22754;SDS011;11544;42.020;23.094;2024-03-08T09:54:57;4.03;;;2.67;;
22754;SDS011;11544;42.020;23.094;2024-03-08T09:57:25;2.60;;;1.90;;
22754;SDS011;11544;42.020;23.094;2024-03-08T09:59:52;5.10;;;2.47;;
22754;SDS011;11544;42.020;23.094;2024-03-08T10:02:19;6.88;;;2.50;;
22754;SDS011;11544;42.020;23.094;2024-03-08T10:04:48;3.78;;;2.15;;
22754;SDS011;11544;42.020;23.094;2024-03-08T10:07:15;3.35;;;2.35;;
22754;SDS011;11544;42.020;23.094;2024-03-08T10:09:42;7.85;;;3.90;;
22754;SDS011;11544;42.020;23.094;2024-03-08T10:12:16;4.93;;;2.30;;
22754;SDS011;11544;42.020;23.094;2024-03-08T10:14:43;4.25;;;2.55;;
22754;SDS011;11544;42.020;23.094;2024-03-08T10:17:10;6.65;;;2.63;;
22754;SDS011;11544;42.020;23.094;2024-03-08T10:19:37;5.15;;;2.20;;
22754;SDS011;11544;42.020;23.094;2024-03-08T10:22:05;4.45;;;2.40;;
22754;SDS011;11544;42.020;23.094;2024-03-08T10:24:33;5.20;;;2.38;;
22754;SDS011;11544;42.020;23.094;2024-03-08T10:27:04;4.05;;;2.17;;
22754;SDS011;11544;42.020;23.094;2024-03-08T10:29:31;3.67;;;2.17;;
22754;SDS011;11544;42.020;23.094;2024-03-08T10:31:59;4.00;;;2.20;;
22754;SDS011;11544;42.020;23.094;2024-03-08T10:34:26;4.10;;;2.50;;
22754;SDS011;11544;42.020;23.094;2024-03-08T10:36:57;3.60;;;2.40;;
22754;SDS011;11544;42.020;23.094;2024-03-08T10:39:34;6.35;;;2.30;;
22754;SDS011;11544;42.020;23.094;2024-03-08T10:42:03;3.42;;;2.60;;
22754;SDS011;11544;42.020;23.094;2024-03-08T10:47:23;5.32;;;2.28;;
22754;SDS011;11544;42.020;23.094;2024-03-08T10:50:18;8.80;;;2.28;;
22754;SDS011;11544;42.020;23.094;2024-03-08T10:52:51;3.35;;;1.80;;
22754;SDS011;11544;42.020;23.094;2024-03-08T10:55:18;3.35;;;2.22;;
22754;SDS011;11544;42.020;23.094;2024-03-08T10:57:49;2.65;;;2.20;;
22754;SDS011;11544;42.020;23.094;2024-03-08T11:00:17;2.50;;;2.17;;
22754;SDS011;11544;42.020;23.094;2024-03-08T11:02:53;3.05;;;2.17;;
22754;SDS011;11544;42.020;23.094;2024-03-08T11:05:39;4.88;;;2.65;;
22754;SDS011;11544;42.020;23.094;2024-03-08T11:10:52;2.92;;;2.08;;
22754;SDS011;11544;42.020;23.094;2024-03-08T11:13:33;3.90;;;1.90;;
22754;SDS011;11544;42.020;23.094;2024-03-08T11:16:07;3.92;;;2.45;;
22754;SDS011;11544;42.020;23.094;2024-03-08T11:18:36;4.53;;;2.35;;
22754;SDS011;11544;42.020;23.094;2024-03-08T11:21:04;11.38;;;1.98;;
22754;SDS011;11544;42.020;23.094;2024-03-08T11:23:39;3.78;;;1.80;;
22754;SDS011;11544;42.020;23.094;2024-03-08T11:26:19;2.58;;;1.80;;
22754;SDS011;11544;42.020;23.094;2024-03-08T11:28:47;3.28;;;1.80;;
22754;SDS011;11544;42.020;23.094;2024-03-08T11:33:47;4.45;;;2.10;;
22754;SDS011;11544;42.020;23.094;2024-03-08T11:38:51;2.25;;;1.73;;
22754;SDS011;11544;42.020;23.094;2024-03-08T11:41:20;2.97;;;2.05;;
22754;SDS011;11544;42.020;23.094;2024-03-08T11:44:01;3.75;;;2.30;;
22754;SDS011;11544;42.020;23.094;2024-03-08T11:46:32;3.45;;;2.25;;
22754;SDS011;11544;42.020;23.094;2024-03-08T11:49:00;3.45;;;2.00;;
22754;SDS011;11544;42.020;23.094;2024-03-08T11:51:27;3.35;;;2.08;;
22754;SDS011;11544;42.020;23.094;2024-03-08T11:53:54;4.40;;;2.40;;
22754;SDS011;11544;42.020;23.094;2024-03-08T11:56:21;3.78;;;2.35;;
22754;SDS011;11544;42.020;23.094;2024-03-08T11:58:53;2.72;;;1.85;;
22754;SDS011;11544;42.020;23.094;2024-03-08T12:01:24;1.95;;;1.42;;
22754;SDS011;11544;42.020;23.094;2024-03-08T12:03:55;7.38;;;2.17;;
22754;SDS011;11544;42.020;23.094;2024-03-08T12:06:26;3.38;;;1.92;;
22754;SDS011;11544;42.020;23.094;2024-03-08T12:08:53;2.95;;;2.03;;
22754;SDS011;11544;42.020;23.094;2024-03-08T12:11:20;5.22;;;3.33;;
22754;SDS011;11544;42.020;23.094;2024-03-08T12:13:50;4.38;;;2.67;;
22754;SDS011;11544;42.020;23.094;2024-03-08T12:16:18;6.93;;;2.58;;
22754;SDS011;11544;42.020;23.094;2024-03-08T12:18:46;4.80;;;2.25;;
22754;SDS011;11544;42.020;23.094;2024-03-08T12:21:13;3.80;;;1.50;;
22754;SDS011;11544;42.020;23.094;2024-03-08T12:23:44;3.88;;;1.23;;
22754;SDS011;11544;42.020;23.094;2024-03-08T12:28:40;5.15;;;1.60;;
22754;SDS011;11544;42.020;23.094;2024-03-08T12:31:12;5.30;;;1.55;;
22754;SDS011;11544;42.020;23.094;2024-03-08T12:33:50;2.45;;;1.45;;
22754;SDS011;11544;42.020;23.094;2024-03-08T12:36:22;2.97;;;1.88;;
22754;SDS011;11544;42.020;23.094;2024-03-08T12:38:49;2.13;;;1.50;;
22754;SDS011;11544;42.020;23.094;2024-03-08T12:41:16;3.40;;;1.20;;
22754;SDS011;11544;42.020;23.094;2024-03-08T12:43:45;4.03;;;1.23;;
22754;SDS011;11544;42.020;23.094;2024-03-08T12:46:16;2.65;;;1.00;;
22754;SDS011;11544;42.020;23.094;2024-03-08T12:48:43;1.55;;;1.27;;
22754;SDS011;11544;42.020;23.094;2024-03-08T12:51:16;2.47;;;1.40;;
22754;SDS011;11544;42.020;23.094;2024-03-08T12:53:45;4.18;;;1.33;;
22754;SDS011;11544;42.020;23.094;2024-03-08T12:56:19;3.63;;;1.13;;
22754;SDS011;11544;42.020;23.094;2024-03-08T12:58:55;4.53;;;1.20;;
22754;SDS011;11544;42.020;23.094;2024-03-08T13:01:23;2.83;;;1.05;;
22754;SDS011;11544;42.020;23.094;2024-03-08T13:03:50;1.60;;;1.02;;
22754;SDS011;11544;42.020;23.094;2024-03-08T13:06:17;4.85;;;1.60;;
22754;SDS011;11544;42.020;23.094;2024-03-08T13:08:44;5.30;;;2.20;;
22754;SDS011;11544;42.020;23.094;2024-03-08T13:11:11;8.50;;;1.20;;
22754;SDS011;11544;42.020;23.094;2024-03-08T13:13:38;4.30;;;1.67;;
22754;SDS011;11544;42.020;23.094;2024-03-08T13:16:06;14.40;;;4.43;;
22754;SDS011;11544;42.020;23.094;2024-03-08T13:18:37;12.77;;;4.07;;
22754;SDS011;11544;42.020;23.094;2024-03-08T13:21:04;12.43;;;4.22;;
22754;SDS011;11544;42.020;23.094;2024-03-08T13:23:32;11.60;;;3.95;;
22754;SDS011;11544;42.020;23.094;2024-03-08T13:26:06;2.05;;;1.00;;
22754;SDS011;11544;42.020;23.094;2024-03-08T13:28:34;4.60;;;1.20;;
22754;SDS011;11544;42.020;23.094;2024-03-08T13:31:04;3.08;;;1.50;;
22754;SDS011;11544;42.020;23.094;2024-03-08T13:33:37;1.92;;;1.00;;
22754;SDS011;11544;42.020;23.094;2024-03-08T13:36:05;5.00;;;1.23;;
22754;SDS011;11544;42.020;23.094;2024-03-08T13:38:43;3.97;;;1.10;;
22754;SDS011;11544;42.020;23.094;2024-03-08T13:41:14;2.35;;;0.80;;
22754;SDS011;11544;42.020;23.094;2024-03-08T13:43:45;1.70;;;1.00;;
22754;SDS011;11544;42.020;23.094;2024-03-08T13:46:13;4.22;;;0.90;;
22754;SDS011;11544;42.020;23.094;2024-03-08T13:48:40;4.10;;;0.90;;
22754;SDS011;11544;42.020;23.094;2024-03-08T13:51:07;5.50;;;1.23;;
22754;SDS011;11544;42.020;23.094;2024-03-08T13:53:39;2.20;;;0.95;;
22754;SDS011;11544;42.020;23.094;2024-03-08T13:56:06;2.55;;;1.00;;
22754;SDS011;11544;42.020;23.094;2024-03-08T13:58:37;2.42;;;0.90;;
22754;SDS011;11544;42.020;23.094;2024-03-08T14:01:06;1.77;;;0.93;;
22754;SDS011;11544;42.020;23.094;2024-03-08T14:03:38;2.05;;;1.20;;
22754;SDS011;11544;42.020;23.094;2024-03-08T14:06:09;2.15;;;1.00;;
22754;SDS011;11544;42.020;23.094;2024-03-08T14:08:50;3.55;;;1.27;;
22754;SDS011;11544;42.020;23.094;2024-03-08T14:11:17;2.33;;;1.08;;
22754;SDS011;11544;42.020;23.094;2024-03-08T14:13:45;1.88;;;1.58;;
22754;SDS011;11544;42.020;23.094;2024-03-08T14:16:13;5.47;;;1.30;;
22754;SDS011;11544;42.020;23.094;2024-03-08T14:18:40;4.65;;;1.00;;
22754;SDS011;11544;42.020;23.094;2024-03-08T14:21:08;2.70;;;1.20;;
22754;SDS011;11544;42.020;23.094;2024-03-08T14:23:35;6.88;;;1.50;;
22754;SDS011;11544;42.020;23.094;2024-03-08T14:26:03;5.22;;;2.10;;
22754;SDS011;11544;42.020;23.094;2024-03-08T14:28:31;4.35;;;1.73;;
22754;SDS011;11544;42.020;23.094;2024-03-08T14:30:59;4.93;;;1.08;;
22754;SDS011;11544;42.020;23.094;2024-03-08T14:33:32;3.65;;;1.23;;
22754;SDS011;11544;42.020;23.094;2024-03-08T14:35:59;2.60;;;1.40;;
22754;SDS011;11544;42.020;23.094;2024-03-08T14:38:28;4.95;;;1.40;;
22754;SDS011;11544;42.020;23.094;2024-03-08T14:40:55;3.17;;;1.67;;
22754;SDS011;11544;42.020;23.094;2024-03-08T14:43:22;4.47;;;1.88;;
22754;SDS011;11544;42.020;23.094;2024-03-08T14:45:49;2.95;;;1.02;;
22754;SDS011;11544;42.020;23.094;2024-03-08T14:48:17;2.33;;;1.23;;
22754;SDS011;11544;42.020;23.094;2024-03-08T14:50:44;7.88;;;1.70;;